Time;durP1;ratioP1;P1;durP2;ratioP2;P2;SDS_P1;SDS_P2;PMS_P1;PMS_P2;Temp;Humidity;BMP_temperature;BMP_pressure;BME280_temperature;BME280_humidity;BME280_pressure;Samples;Min_cycle;Max_cycle;Signal;HPM_P1;HPM_P2
2023/12/08 00:02:05;;;;;;;22.00;13.65;;;4.60;99.90;;;;;;4882120;29;20471;-77
2023/12/08 00:04:31;;;;;;;23.27;14.23;;;4.60;99.90;;;;;;4865335;29;20065;-78
2023/12/08 00:06:56;;;;;;;21.45;13.63;;;4.60;99.90;;;;;;4882080;29;20037;-79
2023/12/08 00:09:22;;;;;;;21.48;14.25;;;4.50;99.90;;;;;;4886351;29;20315;-77
2023/12/08 00:11:48;;;;;;;19.02;13.18;;;4.60;99.90;;;;;;4883653;29;20037;-78
2023/12/08 00:14:14;;;;;;;22.60;13.35;;;4.60;99.90;;;;;;4867457;29;20029;-77
2023/12/08 00:16:41;;;;;;;23.83;13.60;;;4.60;99.90;;;;;;4883091;29;20048;-78
2023/12/08 00:19:07;;;;;;;23.83;14.10;;;4.60;99.90;;;;;;4881797;29;20087;-77
2023/12/08 00:21:33;;;;;;;19.20;12.93;;;4.60;99.90;;;;;;4881679;29;20037;-80
2023/12/08 00:23:58;;;;;;;20.13;13.18;;;4.60;99.90;;;;;;4881396;29;20033;-77
2023/12/08 00:26:24;;;;;;;18.65;12.48;;;4.70;99.90;;;;;;4881329;29;20069;-75
2023/12/08 00:28:50;;;;;;;18.52;12.93;;;4.70;99.90;;;;;;4865155;29;20073;-74
2023/12/08 00:31:15;;;;;;;18.25;12.52;;;4.60;99.90;;;;;;4864429;29;20493;-75
2023/12/08 00:33:41;;;;;;;18.10;12.43;;;4.70;99.90;;;;;;4881346;29;20037;-75
2023/12/08 00:36:15;;;;;;;16.42;12.10;;;4.70;99.90;;;;;;4881353;29;20037;-74
2023/12/08 00:38:41;;;;;;;19.25;12.65;;;4.80;99.90;;;;;;4881048;29;20053;-77
2023/12/08 00:41:08;;;;;;;18.77;11.98;;;4.80;99.90;;;;;;4881148;29;20029;-77
2023/12/08 00:43:34;;;;;;;19.52;11.13;;;4.80;99.90;;;;;;4881342;29;20025;-75
2023/12/08 00:46:00;;;;;;;17.83;11.70;;;4.80;99.90;;;;;;4864507;29;20036;-75
2023/12/08 00:48:25;;;;;;;17.60;12.18;;;4.80;99.90;;;;;;4883080;29;20033;-74
2023/12/08 00:50:51;;;;;;;16.90;11.32;;;4.80;99.90;;;;;;4881296;29;20057;-75
2023/12/08 00:53:16;;;;;;;19.17;11.50;;;4.80;99.90;;;;;;4864938;29;20077;-75
2023/12/08 00:55:42;;;;;;;16.33;11.32;;;4.80;99.90;;;;;;4880823;29;20366;-73
2023/12/08 00:58:08;;;;;;;16.00;11.23;;;4.80;99.90;;;;;;4864634;29;20124;-73
2023/12/08 01:00:33;;;;;;;17.38;11.80;;;4.80;99.90;;;;;;4881181;29;20484;-73
2023/12/08 01:02:59;;;;;;;17.35;11.82;;;4.70;99.90;;;;;;4864761;29;20469;-74
2023/12/08 01:05:25;;;;;;;16.33;11.20;;;4.80;99.90;;;;;;4881299;29;20454;-74
2023/12/08 01:07:50;;;;;;;17.40;11.63;;;4.70;99.90;;;;;;4866266;29;20033;-74
2023/12/08 01:10:16;;;;;;;21.42;12.60;;;4.70;99.90;;;;;;4881217;29;20037;-74
2023/12/08 01:12:43;;;;;;;18.17;11.90;;;4.60;99.90;;;;;;4881209;29;20033;-74
2023/12/08 01:15:09;;;;;;;17.85;12.00;;;4.60;99.90;;;;;;4864471;29;20044;-74
2023/12/08 01:17:34;;;;;;;21.25;11.82;;;4.50;99.90;;;;;;4880842;29;20049;-74
2023/12/08 01:20:00;;;;;;;17.90;11.52;;;4.60;99.90;;;;;;4880862;29;20040;-74
2023/12/08 01:22:27;;;;;;;16.48;10.60;;;4.50;99.90;;;;;;4880625;29;20081;-74
2023/12/08 01:24:53;;;;;;;16.00;10.60;;;4.60;99.90;;;;;;4880406;29;20562;-74
2023/12/08 01:27:19;;;;;;;16.48;11.23;;;4.70;99.90;;;;;;4880810;29;20045;-75
2023/12/08 01:29:45;;;;;;;16.40;10.98;;;4.80;99.90;;;;;;4863747;29;20025;-74
2023/12/08 01:32:10;;;;;;;17.00;11.32;;;4.70;99.90;;;;;;4880426;29;20642;-74
2023/12/08 01:34:36;;;;;;;18.35;11.32;;;4.70;99.90;;;;;;4880808;29;20475;-75
2023/12/08 01:37:02;;;;;;;16.85;10.48;;;4.70;99.90;;;;;;4880258;29;20067;-75
2023/12/08 01:39:27;;;;;;;15.57;10.65;;;4.70;99.90;;;;;;4863788;29;20041;-74
2023/12/08 01:41:53;;;;;;;16.58;11.32;;;4.70;99.90;;;;;;4880352;29;20085;-75
2023/12/08 01:44:18;;;;;;;15.40;10.25;;;4.70;99.90;;;;;;4879703;29;20029;-75
2023/12/08 01:46:45;;;;;;;17.25;10.63;;;4.70;99.90;;;;;;4880198;29;20037;-74
2023/12/08 01:49:12;;;;;;;16.75;11.48;;;4.70;99.90;;;;;;4863594;29;20136;-74
2023/12/08 01:51:38;;;;;;;16.15;10.05;;;4.80;99.90;;;;;;4879910;29;20025;-74
2023/12/08 01:54:05;;;;;;;16.27;10.95;;;4.80;99.90;;;;;;4863273;29;20037;-74
2023/12/08 01:56:30;;;;;;;16.20;10.93;;;4.80;99.90;;;;;;4880053;29;20065;-73
2023/12/08 01:58:56;;;;;;;17.52;11.00;;;4.80;99.90;;;;;;4880494;29;20041;-73
2023/12/08 02:01:22;;;;;;;16.85;11.43;;;4.90;99.90;;;;;;4863500;29;20033;-74
2023/12/08 02:03:50;;;;;;;14.38;10.52;;;4.90;99.90;;;;;;4879876;29;20025;-74
2023/12/08 02:06:16;;;;;;;18.83;11.75;;;4.90;99.90;;;;;;4880120;29;20064;-74
2023/12/08 02:08:41;;;;;;;17.58;11.30;;;5.00;99.90;;;;;;4879746;29;20062;-74
2023/12/08 02:11:07;;;;;;;16.00;11.40;;;5.00;99.90;;;;;;4881627;29;20040;-76
2023/12/08 02:13:33;;;;;;;15.50;10.80;;;5.00;99.90;;;;;;4847455;29;20467;-75
2023/12/08 02:16:17;;;;;;;16.13;10.57;;;5.00;99.90;;;;;;4862787;29;20049;-74
2023/12/08 02:18:44;;;;;;;15.77;10.82;;;4.90;99.90;;;;;;4879673;29;20123;-74
2023/12/08 02:21:10;;;;;;;16.05;10.90;;;4.90;99.90;;;;;;4864758;29;20061;-74
2023/12/08 02:23:36;;;;;;;19.23;11.32;;;5.00;99.90;;;;;;4879699;29;20105;-75
2023/12/08 02:26:05;;;;;;;14.90;10.13;;;5.00;99.90;;;;;;4862960;29;20044;-77
2023/12/08 02:28:31;;;;;;;16.60;10.60;;;5.00;99.90;;;;;;4863131;29;20120;-76
2023/12/08 02:30:59;;;;;;;16.08;10.88;;;5.10;99.90;;;;;;4862916;29;20452;-75
2023/12/08 02:33:30;;;;;;;15.85;10.88;;;5.20;99.90;;;;;;4879331;29;20461;-75
2023/12/08 02:35:57;;;;;;;15.88;10.93;;;5.20;99.90;;;;;;4879629;29;20079;-75
2023/12/08 02:38:24;;;;;;;16.40;11.98;;;5.20;99.90;;;;;;4879892;29;20346;-75
2023/12/08 02:40:50;;;;;;;15.02;11.40;;;5.20;99.90;;;;;;4881338;29;20032;-75
2023/12/08 02:43:15;;;;;;;15.95;11.38;;;5.20;99.90;;;;;;4879294;29;20511;-74
2023/12/08 02:45:41;;;;;;;15.07;11.13;;;5.10;99.90;;;;;;4879024;29;20032;-75
2023/12/08 02:48:07;;;;;;;17.73;11.15;;;5.10;99.90;;;;;;4847304;29;20121;-76
2023/12/08 02:50:32;;;;;;;14.80;11.05;;;5.10;99.90;;;;;;4883351;29;20454;-75
2023/12/08 02:52:58;;;;;;;16.77;11.93;;;5.10;99.90;;;;;;4880113;29;20446;-74
2023/12/08 02:55:24;;;;;;;15.80;11.60;;;5.00;99.90;;;;;;4878865;29;20044;-76
2023/12/08 02:57:49;;;;;;;15.85;12.38;;;5.00;99.90;;;;;;4879199;29;20037;-75
2023/12/08 03:00:16;;;;;;;17.58;12.65;;;4.90;99.90;;;;;;4879181;29;20033;-74
2023/12/08 03:02:42;;;;;;;17.77;11.82;;;4.90;99.90;;;;;;4878940;29;20037;-75
2023/12/08 03:05:08;;;;;;;17.13;11.60;;;4.90;99.90;;;;;;4881119;29;20458;-75
2023/12/08 03:07:33;;;;;;;19.02;13.57;;;4.90;99.90;;;;;;4879019;29;20032;-74
2023/12/08 03:09:59;;;;;;;19.25;13.18;;;4.90;99.90;;;;;;4879181;29;20033;-74
2023/12/08 03:12:25;;;;;;;16.52;12.05;;;4.80;99.90;;;;;;4878911;29;20343;-73
2023/12/08 03:14:50;;;;;;;19.15;13.48;;;4.90;99.90;;;;;;4879043;29;20045;-74
2023/12/08 03:17:16;;;;;;;17.73;12.18;;;4.90;99.90;;;;;;4879187;29;20044;-74
2023/12/08 03:19:41;;;;;;;17.70;11.60;;;4.90;99.90;;;;;;4879240;29;20469;-74
2023/12/08 03:22:08;;;;;;;20.10;11.88;;;4.90;99.90;;;;;;4879161;29;20499;-75
2023/12/08 03:24:33;;;;;;;18.42;12.18;;;4.90;99.90;;;;;;4879065;29;20029;-72
2023/12/08 03:26:59;;;;;;;18.10;12.23;;;4.90;99.90;;;;;;4862297;29;20124;-73
2023/12/08 03:29:24;;;;;;;16.67;12.23;;;4.90;99.90;;;;;;4879178;29;20039;-75
2023/12/08 03:31:50;;;;;;;18.48;12.05;;;4.90;99.90;;;;;;4879115;29;20121;-74
2023/12/08 03:34:16;;;;;;;18.58;12.68;;;4.90;99.90;;;;;;4878925;29;20116;-74
2023/12/08 03:36:41;;;;;;;18.70;12.85;;;4.90;99.90;;;;;;4878765;29;20079;-77
2023/12/08 03:39:07;;;;;;;20.63;13.80;;;4.90;99.90;;;;;;4879103;29;20115;-76
2023/12/08 03:41:32;;;;;;;20.58;13.55;;;4.80;99.90;;;;;;4879128;29;20446;-76
2023/12/08 03:43:58;;;;;;;18.95;13.57;;;4.80;99.90;;;;;;4879059;29;20125;-76
2023/12/08 03:46:24;;;;;;;20.73;13.88;;;4.80;99.90;;;;;;4847090;29;20071;-76
2023/12/08 03:48:49;;;;;;;21.17;14.10;;;4.70;99.90;;;;;;4879002;29;20455;-76
2023/12/08 03:51:15;;;;;;;19.40;12.85;;;4.60;99.90;;;;;;4878671;29;20033;-74
2023/12/08 03:53:41;;;;;;;20.85;14.00;;;4.60;99.90;;;;;;4878635;29;20037;-75
2023/12/08 03:56:07;;;;;;;18.67;13.18;;;4.60;99.90;;;;;;4878528;29;20037;-75
2023/12/08 03:58:33;;;;;;;21.02;13.63;;;4.50;99.90;;;;;;4878788;29;20037;-75
2023/12/08 04:00:59;;;;;;;21.85;13.60;;;4.60;99.90;;;;;;4878735;29;20033;-75
2023/12/08 04:03:24;;;;;;;19.50;13.73;;;4.60;99.90;;;;;;4879096;29;20033;-75
2023/12/08 04:05:50;;;;;;;22.05;14.70;;;4.50;99.90;;;;;;4861994;29;20061;-75
2023/12/08 04:08:16;;;;;;;20.45;13.77;;;4.60;99.90;;;;;;4881377;29;20044;-74
2023/12/08 04:10:42;;;;;;;19.90;13.38;;;4.60;99.90;;;;;;4881872;29;20111;-74
2023/12/08 04:13:07;;;;;;;21.90;14.43;;;4.60;99.90;;;;;;4865858;29;20037;-75
2023/12/08 04:15:33;;;;;;;21.00;13.63;;;4.60;99.90;;;;;;4882011;29;20434;-76
2023/12/08 04:17:59;;;;;;;21.15;14.73;;;4.60;99.90;;;;;;4882101;29;20065;-75
2023/12/08 04:20:24;;;;;;;21.13;14.43;;;4.60;99.90;;;;;;4865388;29;20076;-77
2023/12/08 04:22:50;;;;;;;18.75;13.75;;;4.70;99.90;;;;;;4882185;29;20029;-76
2023/12/08 04:25:16;;;;;;;23.73;14.48;;;4.60;99.90;;;;;;4882090;29;20097;-76
2023/12/08 04:27:41;;;;;;;20.38;13.98;;;4.60;99.90;;;;;;4865580;29;20371;-76
2023/12/08 04:30:07;;;;;;;19.90;13.07;;;4.60;99.90;;;;;;4881920;29;20439;-75
2023/12/08 04:32:34;;;;;;;20.30;13.45;;;4.60;99.90;;;;;;4882251;29;20072;-75
2023/12/08 04:35:00;;;;;;;19.30;13.48;;;4.60;99.90;;;;;;4881794;29;20032;-74
2023/12/08 04:37:25;;;;;;;21.98;13.65;;;4.60;99.90;;;;;;4865699;29;20136;-75
2023/12/08 04:39:51;;;;;;;22.52;13.93;;;4.60;99.90;;;;;;4881596;29;20040;-75
2023/12/08 04:42:17;;;;;;;20.05;13.50;;;4.60;99.90;;;;;;4881297;29;20048;-76
2023/12/08 04:44:43;;;;;;;18.55;13.27;;;4.50;99.90;;;;;;4881244;29;20444;-75
2023/12/08 04:47:09;;;;;;;22.95;13.93;;;4.50;99.90;;;;;;4881485;29;20116;-76
2023/12/08 04:49:35;;;;;;;19.55;13.05;;;4.60;99.90;;;;;;4864846;29;20037;-74
2023/12/08 04:52:01;;;;;;;21.02;14.00;;;4.60;99.90;;;;;;4881028;29;20555;-75
2023/12/08 04:54:26;;;;;;;21.40;14.15;;;4.60;99.90;;;;;;4881287;29;20041;-75
2023/12/08 04:56:52;;;;;;;22.17;14.55;;;4.70;99.90;;;;;;4881235;29;20067;-75
2023/12/08 04:59:18;;;;;;;22.50;13.63;;;4.70;99.90;;;;;;4864697;29;20037;-75
2023/12/08 05:01:43;;;;;;;21.15;14.52;;;4.70;99.90;;;;;;4864822;29;20458;-76
2023/12/08 05:04:09;;;;;;;21.65;14.82;;;4.70;99.90;;;;;;4880620;29;20061;-75
2023/12/08 05:06:36;;;;;;;25.83;16.58;;;4.70;99.90;;;;;;4881067;29;20394;-75
2023/12/08 05:09:02;;;;;;;22.30;15.30;;;4.70;99.90;;;;;;4881808;29;20041;-75
2023/12/08 05:11:28;;;;;;;24.92;15.38;;;4.70;99.90;;;;;;4881315;29;20040;-75
2023/12/08 05:13:54;;;;;;;25.83;17.05;;;4.70;99.90;;;;;;4880975;29;20033;-75
2023/12/08 05:16:19;;;;;;;23.15;16.40;;;4.70;99.90;;;;;;4881015;29;20145;-76
2023/12/08 05:18:45;;;;;;;25.15;16.23;;;4.70;99.90;;;;;;4880255;29;20529;-74
2023/12/08 05:21:11;;;;;;;25.35;17.35;;;4.60;99.90;;;;;;4881074;29;20033;-74
2023/12/08 05:23:36;;;;;;;26.73;16.48;;;4.60;99.90;;;;;;4864842;29;20044;-75
2023/12/08 05:26:02;;;;;;;29.20;17.80;;;4.60;99.90;;;;;;4881303;29;20053;-75
2023/12/08 05:28:27;;;;;;;29.02;18.33;;;4.60;99.90;;;;;;4880850;29;20033;-75
2023/12/08 05:30:53;;;;;;;30.75;19.70;;;4.50;99.90;;;;;;4865425;29;20037;-75
2023/12/08 05:33:19;;;;;;;23.95;16.58;;;4.40;99.90;;;;;;4881637;29;20036;-75
2023/12/08 05:35:45;;;;;;;28.52;19.02;;;4.30;99.90;;;;;;4853412;29;20394;-74
2023/12/08 05:38:10;;;;;;;27.92;18.88;;;4.40;99.90;;;;;;4885821;29;20033;-74
2023/12/08 05:40:36;;;;;;;26.83;18.52;;;4.50;99.90;;;;;;4885750;29;20100;-73
2023/12/08 05:43:02;;;;;;;28.83;18.73;;;4.40;99.90;;;;;;4881260;29;20363;-74
2023/12/08 05:45:28;;;;;;;28.75;19.02;;;4.40;99.90;;;;;;4880196;29;20033;-74
2023/12/08 05:47:54;;;;;;;34.30;18.55;;;4.50;99.90;;;;;;4863864;29;20101;-74
2023/12/08 05:50:19;;;;;;;30.38;20.10;;;4.50;99.90;;;;;;4880686;29;20077;-74
2023/12/08 05:52:45;;;;;;;28.08;18.50;;;4.50;99.90;;;;;;4863867;29;20029;-73
2023/12/08 05:55:11;;;;;;;26.40;17.85;;;4.50;99.90;;;;;;4880625;29;20037;-74
2023/12/08 05:57:36;;;;;;;31.40;19.30;;;4.60;99.90;;;;;;4880051;29;20041;-74
2023/12/08 06:00:05;;;;;;;27.17;18.02;;;4.60;99.90;;;;;;4880245;29;20044;-74
2023/12/08 06:02:31;;;;;;;25.95;18.17;;;4.60;99.90;;;;;;4880413;29;20055;-74
2023/12/08 06:04:56;;;;;;;28.13;17.70;;;4.70;99.90;;;;;;4880257;29;20533;-74
2023/12/08 06:07:22;;;;;;;28.08;18.65;;;4.70;99.90;;;;;;4880029;29;20398;-74
2023/12/08 06:09:47;;;;;;;27.73;18.48;;;4.70;99.90;;;;;;4879932;29;20041;-74
2023/12/08 06:12:13;;;;;;;31.73;20.10;;;4.70;99.90;;;;;;4880137;29;20067;-75
2023/12/08 06:14:39;;;;;;;27.75;18.88;;;4.70;99.90;;;;;;4880139;29;20423;-74
2023/12/08 06:17:04;;;;;;;27.00;17.67;;;4.70;99.90;;;;;;4879858;29;20033;-74
2023/12/08 06:19:31;;;;;;;29.63;19.10;;;4.80;99.90;;;;;;4863278;29;20036;-73
2023/12/08 06:21:56;;;;;;;28.85;18.27;;;4.80;99.90;;;;;;4879452;29;20033;-74
2023/12/08 06:24:22;;;;;;;26.30;18.23;;;4.70;99.90;;;;;;4879848;29;20116;-74
2023/12/08 06:26:47;;;;;;;26.60;18.52;;;4.70;99.90;;;;;;4879659;29;20047;-75
2023/12/08 06:29:13;;;;;;;26.63;19.60;;;4.80;99.90;;;;;;4879806;29;20367;-72
2023/12/08 06:31:39;;;;;;;31.50;19.98;;;4.70;99.90;;;;;;4879551;29;20060;-73
2023/12/08 06:34:04;;;;;;;32.13;19.42;;;4.70;99.90;;;;;;4879704;29;20258;-73
2023/12/08 06:36:30;;;;;;;28.90;19.20;;;4.80;99.90;;;;;;4879267;29;20072;-72
2023/12/08 06:38:55;;;;;;;30.38;19.73;;;4.80;99.90;;;;;;4879868;29;20071;-72
2023/12/08 06:41:21;;;;;;;32.78;20.10;;;4.80;99.90;;;;;;4879579;29;20445;-72
2023/12/08 06:43:48;;;;;;;30.30;20.33;;;4.80;99.90;;;;;;4879519;29;20482;-72
2023/12/08 06:46:13;;;;;;;30.35;19.33;;;4.70;99.90;;;;;;4879534;29;20037;-72
2023/12/08 06:48:39;;;;;;;34.97;19.13;;;4.80;99.90;;;;;;4879601;29;20482;-72
2023/12/08 06:51:05;;;;;;;32.03;20.50;;;4.80;99.90;;;;;;4879673;29;20033;-72
2023/12/08 06:53:30;;;;;;;30.60;19.33;;;4.80;99.90;;;;;;4879566;29;20048;-72
2023/12/08 06:55:56;;;;;;;27.35;18.65;;;4.80;99.90;;;;;;4879925;29;20381;-72
2023/12/08 06:58:22;;;;;;;28.00;19.05;;;4.90;99.90;;;;;;4862747;29;20037;-72
2023/12/08 07:00:48;;;;;;;28.80;19.33;;;4.90;99.90;;;;;;4879416;29;20089;-73
2023/12/08 07:03:13;;;;;;;29.52;19.88;;;4.90;99.90;;;;;;4879317;29;20041;-73
2023/12/08 07:05:39;;;;;;;24.98;17.42;;;4.90;99.90;;;;;;4844264;29;20072;-75
2023/12/08 07:08:05;;;;;;;30.55;20.55;;;4.90;99.90;;;;;;4842478;29;20116;-73
2023/12/08 07:10:30;;;;;;;31.15;20.20;;;5.00;99.90;;;;;;4842523;29;20042;-74
2023/12/08 07:12:56;;;;;;;27.30;18.08;;;5.00;99.90;;;;;;4841910;29;20034;-72
2023/12/08 07:15:22;;;;;;;29.02;20.20;;;5.00;99.90;;;;;;4841387;29;20133;-73
2023/12/08 07:17:47;;;;;;;31.67;20.55;;;5.10;99.90;;;;;;4842224;29;20459;-73
2023/12/08 07:20:13;;;;;;;31.20;19.25;;;5.00;99.90;;;;;;4842381;29;20030;-72
2023/12/08 07:22:39;;;;;;;30.90;18.35;;;5.00;99.90;;;;;;4840796;29;20501;-73
2023/12/08 07:25:07;;;;;;;30.17;20.33;;;5.10;99.90;;;;;;4825795;29;20387;-73
2023/12/08 07:27:33;;;;;;;30.75;19.73;;;5.10;99.90;;;;;;4842027;29;20109;-73
2023/12/08 07:29:59;;;;;;;30.05;19.42;;;5.10;99.90;;;;;;4841835;29;20495;-73
2023/12/08 07:32:24;;;;;;;30.70;20.25;;;5.10;99.90;;;;;;4842225;29;20030;-73
2023/12/08 07:34:50;;;;;;;31.85;20.90;;;5.20;99.90;;;;;;4842134;29;20033;-73
2023/12/08 07:37:16;;;;;;;26.35;18.90;;;5.10;99.90;;;;;;4842121;29;20083;-73
2023/12/08 07:39:42;;;;;;;30.60;20.50;;;5.10;99.90;;;;;;4842085;29;20118;-73
2023/12/08 07:42:08;;;;;;;33.92;21.27;;;5.20;99.90;;;;;;4842339;29;20478;-73
2023/12/08 07:44:35;;;;;;;29.80;19.60;;;5.20;99.90;;;;;;4845395;29;20034;-73
2023/12/08 07:47:01;;;;;;;28.75;19.35;;;5.20;99.90;;;;;;4844376;29;20030;-73
2023/12/08 07:49:27;;;;;;;30.27;19.70;;;5.30;99.90;;;;;;4845859;29;20118;-73
2023/12/08 07:51:53;;;;;;;32.97;19.15;;;5.30;99.90;;;;;;4845729;29;20033;-74
2023/12/08 07:54:19;;;;;;;26.55;18.02;;;5.40;99.90;;;;;;4845639;29;20034;-73
2023/12/08 07:56:44;;;;;;;29.27;18.58;;;5.40;99.90;;;;;;4844802;29;20448;-73
2023/12/08 07:59:10;;;;;;;31.42;18.77;;;5.40;99.90;;;;;;4844517;29;20063;-73
2023/12/08 08:01:36;;;;;;;30.08;18.90;;;5.40;99.90;;;;;;4844104;29;20030;-73
2023/12/08 08:04:01;;;;;;;35.40;19.83;;;5.40;99.90;;;;;;4849627;29;20053;-73
2023/12/08 08:06:27;;;;;;;35.88;19.85;;;5.50;99.90;;;;;;4882642;29;20100;-74
2023/12/08 08:08:53;;;;;;;28.73;18.88;;;5.50;99.90;;;;;;4866048;29;20132;-74
2023/12/08 08:11:19;;;;;;;30.65;20.00;;;5.50;99.90;;;;;;4883069;29;20470;-76
2023/12/08 08:13:45;;;;;;;29.08;19.17;;;5.50;99.90;;;;;;4883478;29;20128;-74
2023/12/08 08:16:10;;;;;;;30.90;19.52;;;5.50;99.90;;;;;;4865758;29;20116;-75
2023/12/08 08:18:36;;;;;;;30.65;19.13;;;5.50;99.90;;;;;;4884600;29;20089;-76
2023/12/08 08:21:02;;;;;;;28.70;15.90;;;5.50;99.90;;;;;;4882560;29;20025;-83
2023/12/08 08:23:27;;;;;;;29.60;17.27;;;5.60;99.90;;;;;;4865692;29;20041;-79
2023/12/08 08:25:53;;;;;;;31.77;18.88;;;5.70;99.90;;;;;;4882111;29;20037;-82
2023/12/08 08:28:19;;;;;;;26.85;17.63;;;5.80;99.90;;;;;;4865485;29;20061;-80
2023/12/08 08:30:45;;;;;;;31.85;18.13;;;5.80;99.90;;;;;;4865313;29;20033;-81
2023/12/08 08:33:11;;;;;;;28.40;16.55;;;5.90;99.90;;;;;;4881845;29;20029;-82
2023/12/08 08:35:37;;;;;;;31.33;20.35;;;6.00;99.90;;;;;;4881454;29;20041;-82
2023/12/08 08:38:03;;;;;;;30.13;17.23;;;5.90;99.90;;;;;;4881636;29;20037;-78
2023/12/08 08:40:31;;;;;;;32.53;19.98;;;6.00;99.90;;;;;;4865327;29;20100;-80
2023/12/08 08:42:56;;;;;;;31.45;18.20;;;6.10;99.90;;;;;;4881503;29;20371;-80
2023/12/08 08:45:22;;;;;;;30.23;19.73;;;6.10;99.90;;;;;;4881734;29;20084;-81
2023/12/08 08:47:48;;;;;;;32.35;17.77;;;6.10;99.90;;;;;;4881087;29;20168;-81
2023/12/08 08:50:13;;;;;;;34.97;19.20;;;6.20;99.90;;;;;;4864405;29;20037;-83
2023/12/08 08:52:39;;;;;;;27.35;16.58;;;6.20;99.90;;;;;;4865166;29;20200;-81
2023/12/08 08:55:05;;;;;;;35.35;20.35;;;6.30;99.90;;;;;;4880901;29;20434;-80
2023/12/08 08:57:31;;;;;;;32.75;18.92;;;6.30;99.90;;;;;;4881141;29;20454;-83
2023/12/08 08:59:57;;;;;;;26.35;16.17;;;6.30;99.90;;;;;;4881389;29;20037;-81
2023/12/08 09:02:23;;;;;;;29.38;18.95;;;6.30;99.90;;;;;;4881108;29;20037;-79
2023/12/08 09:04:49;;;;;;;27.05;16.85;;;6.30;99.90;;;;;;4881913;29;20057;-83
2023/12/08 09:07:14;;;;;;;26.65;16.80;;;6.30;99.90;;;;;;4864692;29;20478;-86
2023/12/08 09:09:40;;;;;;;27.67;17.88;;;6.40;99.90;;;;;;4881901;29;20037;-84
2023/12/08 09:12:07;;;;;;;29.00;17.67;;;6.40;99.90;;;;;;4881401;29;20370;-84
2023/12/08 09:14:33;;;;;;;27.02;18.55;;;6.40;99.90;;;;;;4881375;29;20124;-79
2023/12/08 09:17:02;;;;;;;26.50;17.38;;;6.40;99.90;;;;;;4881483;29;20089;-82
2023/12/08 09:19:28;;;;;;;27.52;17.52;;;6.40;99.90;;;;;;4881122;29;20033;-84
2023/12/08 09:21:54;;;;;;;25.50;17.10;;;6.50;99.90;;;;;;4881084;29;20036;-84
2023/12/08 09:24:20;;;;;;;28.55;18.10;;;6.50;99.90;;;;;;4864393;29;20033;-84
2023/12/08 09:26:46;;;;;;;28.33;18.52;;;6.50;99.90;;;;;;4850683;29;20089;-81
2023/12/08 09:29:12;;;;;;;28.17;18.25;;;6.50;99.90;;;;;;4880944;29;20474;-80
2023/12/08 09:31:37;;;;;;;25.63;16.27;;;6.50;99.90;;;;;;4880568;29;20033;-82
2023/12/08 09:34:03;;;;;;;26.88;17.05;;;6.60;99.90;;;;;;4880707;29;20110;-83
2023/12/08 09:36:28;;;;;;;25.13;16.70;;;6.60;99.90;;;;;;4880924;29;20041;-85
2023/12/08 09:38:54;;;;;;;30.13;17.67;;;6.60;99.90;;;;;;4880961;29;20052;-81
2023/12/08 09:41:20;;;;;;;26.65;16.42;;;6.60;99.90;;;;;;4880757;29;20500;-81
2023/12/08 09:44:02;;;;;;;29.17;17.15;;;6.60;99.90;;;;;;4880907;29;20033;-77
2023/12/08 09:46:29;;;;;;;26.90;17.47;;;6.60;99.90;;;;;;4880609;29;20033;-82
2023/12/08 09:48:58;;;;;;;27.23;15.48;;;6.60;99.90;;;;;;4864345;29;20491;-83
2023/12/08 09:51:24;;;;;;;23.30;14.07;;;6.60;99.90;;;;;;4881089;29;20036;-83
2023/12/08 09:53:50;;;;;;;24.48;15.95;;;6.60;99.90;;;;;;4879790;29;20495;-80
2023/12/08 09:56:17;;;;;;;26.33;16.17;;;6.70;99.90;;;;;;4879701;29;20116;-85
2023/12/08 09:58:44;;;;;;;28.75;16.73;;;6.70;99.90;;;;;;4880410;29;20039;-84
2023/12/08 10:01:17;;;;;;;33.65;19.20;;;6.70;99.90;;;;;;4880748;29;20037;-83
2023/12/08 10:03:43;;;;;;;31.43;18.07;;;6.70;99.90;;;;;;4863678;29;20378;-79
2023/12/08 10:06:10;;;;;;;31.13;17.75;;;6.70;99.90;;;;;;4862829;29;20344;-81
2023/12/08 10:08:37;;;;;;;31.60;18.38;;;6.80;99.90;;;;;;4880316;29;20032;-78
2023/12/08 10:11:05;;;;;;;32.97;19.27;;;6.80;99.90;;;;;;4880296;29;20120;-86
2023/12/08 10:13:31;;;;;;;35.20;18.45;;;6.90;99.90;;;;;;4880294;29;20041;-78
2023/12/08 10:15:57;;;;;;;38.67;19.77;;;6.80;99.90;;;;;;4879903;29;20029;-78
2023/12/08 10:18:24;;;;;;;42.03;20.13;;;6.80;99.90;;;;;;4880378;29;20044;-86
2023/12/08 10:20:50;;;;;;;34.38;19.15;;;6.90;99.90;;;;;;4880050;29;20378;-82
2023/12/08 10:23:22;;;;;;;39.10;20.38;;;6.90;99.90;;;;;;4863668;29;20029;-78
2023/12/08 10:25:48;;;;;;;39.67;20.93;;;7.00;99.90;;;;;;4880000;29;20100;-82
2023/12/08 10:28:14;;;;;;;49.72;23.63;;;7.00;99.90;;;;;;4880247;29;20049;-81
2023/12/08 10:30:51;;;;;;;43.63;22.52;;;7.00;99.90;;;;;;4880738;29;20059;-82
2023/12/08 10:33:20;;;;;;;41.28;20.00;;;7.00;99.90;;;;;;4880807;29;20438;-77
2023/12/08 10:35:46;;;;;;;39.17;20.95;;;7.00;99.90;;;;;;4880060;29;20111;-82
2023/12/08 10:38:16;;;;;;;47.72;24.98;;;7.10;99.90;;;;;;4880392;29;20048;-83
2023/12/08 10:40:49;;;;;;;64.55;23.98;;;7.10;99.90;;;;;;4864956;29;20513;-85
2023/12/08 10:43:25;;;;;;;55.60;24.75;;;7.10;99.90;;;;;;4864491;29;20028;-85
2023/12/08 10:45:55;;;;;;;50.25;26.40;;;7.10;99.90;;;;;;4865370;29;20037;-83
2023/12/08 10:48:23;;;;;;;49.47;25.65;;;7.10;99.90;;;;;;4882343;29;20020;-82
2023/12/08 10:50:53;;;;;;;53.58;26.42;;;7.20;99.90;;;;;;4880572;29;20081;-77
2023/12/08 10:53:21;;;;;;;61.53;28.17;;;7.20;99.90;;;;;;4879941;29;20036;-76
2023/12/08 10:56:10;;;;;;;56.03;27.85;;;7.20;99.90;;;;;;4879698;29;20145;-77
2023/12/08 10:58:39;;;;;;;54.20;25.83;;;7.30;99.90;;;;;;4863386;29;20033;-80
2023/12/08 11:01:12;;;;;;;51.95;26.70;;;7.20;99.90;;;;;;4863055;29;20112;-80
2023/12/08 11:03:39;;;;;;;;;;;7.30;99.90;;;;;;4879700;29;20128;-79
2023/12/08 11:06:19;;;;;;;58.53;27.00;;;7.30;99.90;;;;;;4879503;29;19924;-80
2023/12/08 11:08:45;;;;;;;55.15;26.40;;;7.30;99.90;;;;;;4862706;29;20025;-79
2023/12/08 11:11:12;;;;;;;60.80;25.30;;;7.40;99.90;;;;;;4879216;29;20110;-79
2023/12/08 11:13:46;;;;;;;51.72;26.92;;;7.50;99.90;;;;;;4879170;29;20434;-79
2023/12/08 11:16:17;;;;;;;61.58;28.58;;;7.50;99.90;;;;;;4878956;29;20029;-79
2023/12/08 11:18:44;;;;;;;55.88;26.45;;;7.50;99.90;;;;;;4865719;29;20035;-79
2023/12/08 11:21:11;;;;;;;53.65;26.08;;;7.50;99.90;;;;;;4882817;29;20039;-79
2023/12/08 11:23:39;;;;;;;63.75;30.35;;;7.60;99.90;;;;;;4883177;29;20121;-81
2023/12/08 11:26:11;;;;;;;65.97;30.65;;;7.50;99.90;;;;;;4866467;29;20043;-78
2023/12/08 11:28:49;;;;;;;68.95;31.05;;;7.60;99.90;;;;;;4882827;29;20100;-84
2023/12/08 11:31:26;;;;;;;65.03;31.52;;;7.60;99.90;;;;;;4883081;29;20073;-82
2023/12/08 11:34:13;;;;;;;64.25;30.77;;;7.60;99.90;;;;;;4883115;29;20086;-79
2023/12/08 11:36:45;;;;;;;71.80;32.63;;;7.70;99.90;;;;;;4884297;29;20029;-83
2023/12/08 11:39:40;;;;;;;58.35;30.95;;;7.60;99.90;;;;;;4865694;29;20045;-83
2023/12/08 11:42:13;;;;;;;74.18;32.58;;;7.70;99.90;;;;;;4882893;29;20059;-80
2023/12/08 11:44:42;;;;;;;65.70;31.15;;;7.70;99.90;;;;;;4870507;29;20090;-84
2023/12/08 11:47:09;;;;;;;84.70;33.53;;;7.70;99.90;;;;;;4882819;29;20127;-81
2023/12/08 11:49:41;;;;;;;79.63;34.38;;;7.70;99.90;;;;;;4850731;29;20029;-81
2023/12/08 11:52:25;;;;;;;77.88;35.03;;;7.70;99.90;;;;;;4883053;29;20040;-83
2023/12/08 11:55:07;;;;;;;70.13;32.70;;;7.70;99.90;;;;;;4882665;29;20187;-81
2023/12/08 11:57:36;;;;;;;72.20;32.90;;;7.80;99.90;;;;;;4882452;29;20363;-79
2023/12/08 12:00:03;;;;;;;94.00;33.58;;;7.80;99.90;;;;;;4882486;29;20048;-81
2023/12/08 12:02:29;;;;;;;77.25;36.00;;;7.80;99.90;;;;;;4865616;29;20043;-76
2023/12/08 12:04:55;;;;;;;101.28;35.88;;;7.90;99.90;;;;;;4865349;29;20057;-76
2023/12/08 12:07:21;;;;;;;77.60;34.15;;;7.90;99.90;;;;;;4865530;29;20067;-81
2023/12/08 12:09:52;;;;;;;81.65;34.70;;;7.80;99.90;;;;;;4865543;29;20061;-80
2023/12/08 12:12:28;;;;;;;73.20;36.00;;;7.80;99.90;;;;;;4883119;29;20059;-81
2023/12/08 12:14:55;;;;;;;75.68;33.40;;;7.80;99.90;;;;;;4882540;29;20033;-80
2023/12/08 12:17:24;;;;;;;62.42;31.95;;;7.90;99.90;;;;;;4882529;29;20100;-84
2023/12/08 12:19:52;;;;;;;78.18;36.38;;;7.90;99.90;;;;;;4883367;29;20441;-81
2023/12/08 12:22:18;;;;;;;74.05;34.45;;;7.90;99.90;;;;;;4882129;29;20103;-77
2023/12/08 12:24:44;;;;;;;79.07;36.90;;;7.90;99.90;;;;;;4881732;29;20085;-80
2023/12/08 12:27:10;;;;;;;90.28;34.45;;;7.90;99.90;;;;;;4882127;29;20146;-78
2023/12/08 12:29:36;;;;;;;67.65;32.13;;;8.00;99.90;;;;;;4881442;29;20025;-76
2023/12/08 12:32:07;;;;;;;134.15;35.72;;;8.00;99.90;;;;;;4881901;29;20116;-78
2023/12/08 12:34:34;;;;;;;88.32;35.33;;;7.90;99.90;;;;;;4882003;29;20077;-79
2023/12/08 12:36:59;;;;;;;164.25;36.70;;;7.90;99.90;;;;;;4881489;29;20125;-76